Time;durP1;ratioP1;P1;durP2;ratioP2;P2;SDS_P1;SDS_P2;PMS_P1;PMS_P2;Temp;Humidity;BMP_temperature;BMP_pressure;BME280_temperature;BME280_humidity;BME280_pressure;Samples;Min_cycle;Max_cycle;Signal;HPM_P1;HPM_P2
2021/03/09 00:02:05;;;;;;;17.97;10.80;;;;;;;;;;5052081;28;20597;-87
2021/03/09 00:05:10;;;;;;;14.87;10.07;;;;;;;;;;5041449;28;20541;-86
2021/03/09 00:08:14;;;;;;;15.17;9.73;;;;;;;;;;5038195;28;21012;-87
2021/03/09 00:11:18;;;;;;;17.57;10.87;;;;;;;;;;5011781;28;21091;-87
2021/03/09 00:14:23;;;;;;;18.40;11.07;;;;;;;;;;5000309;28;20590;-87
2021/03/09 00:17:27;;;;;;;18.17;11.27;;;;;;;;;;5011337;28;20654;-87
2021/03/09 00:20:31;;;;;;;16.93;10.83;;;;;;;;;;5011888;28;20547;-87
2021/03/09 00:23:35;;;;;;;17.97;11.47;;;;;;;;;;5000258;28;20543;-86
2021/03/09 00:26:39;;;;;;;17.83;11.37;;;;;;;;;;5011110;28;20567;-87
2021/03/09 00:29:44;;;;;;;15.53;10.63;;;;;;;;;;5022613;28;20550;-87
2021/03/09 00:32:49;;;;;;;17.37;11.40;;;;;;;;;;5011215;28;20563;-87
2021/03/09 00:35:53;;;;;;;16.97;10.53;;;;;;;;;;5010901;28;21105;-87
2021/03/09 00:38:58;;;;;;;16.03;10.00;;;;;;;;;;5011317;28;20555;-87
2021/03/09 00:42:02;;;;;;;18.33;11.60;;;;;;;;;;4999928;28;20539;-87
2021/03/09 00:45:06;;;;;;;17.20;11.20;;;;;;;;;;5022052;28;20599;-87
2021/03/09 00:48:10;;;;;;;20.27;12.40;;;;;;;;;;5021940;28;20630;-87
2021/03/09 00:51:14;;;;;;;19.53;11.63;;;;;;;;;;5011154;28;20544;-87
2021/03/09 00:54:19;;;;;;;18.27;11.50;;;;;;;;;;5010417;28;21001;-86
2021/03/09 00:57:23;;;;;;;17.47;10.97;;;;;;;;;;4998895;28;20630;-87
2021/03/09 01:00:29;;;;;;;18.70;11.10;;;;;;;;;;5011232;28;20555;-87
2021/03/09 01:03:33;;;;;;;17.90;11.50;;;;;;;;;;5010744;28;20543;-87
2021/03/09 01:06:38;;;;;;;17.63;11.00;;;;;;;;;;5022120;28;20544;-87
2021/03/09 01:09:42;;;;;;;20.23;11.53;;;;;;;;;;5010444;28;20578;-87
2021/03/09 01:12:46;;;;;;;19.70;12.07;;;;;;;;;;5010823;28;20550;-87
2021/03/09 01:15:50;;;;;;;19.87;11.60;;;;;;;;;;5010511;28;20607;-87
2021/03/09 01:18:54;;;;;;;19.57;11.70;;;;;;;;;;4999693;28;20560;-87
2021/03/09 01:21:59;;;;;;;20.87;11.43;;;;;;;;;;5038925;28;20597;-86
2021/03/09 01:25:05;;;;;;;18.87;12.10;;;;;;;;;;5019124;28;20542;-87
2021/03/09 01:28:10;;;;;;;18.67;10.70;;;;;;;;;;5030065;28;21183;-87
2021/03/09 01:31:14;;;;;;;19.73;10.80;;;;;;;;;;5018808;28;20558;-87
2021/03/09 01:34:18;;;;;;;17.97;11.13;;;;;;;;;;5030025;28;20622;-87
2021/03/09 01:37:23;;;;;;;21.40;11.93;;;;;;;;;;5041528;28;20651;-88
2021/03/09 01:40:27;;;;;;;17.80;11.07;;;;;;;;;;5029902;28;20558;-87
2021/03/09 01:43:32;;;;;;;18.27;10.70;;;;;;;;;;5030275;28;20565;-88
2021/03/09 01:46:36;;;;;;;18.33;10.90;;;;;;;;;;5018570;28;20546;-87
2021/03/09 01:49:41;;;;;;;18.77;11.53;;;;;;;;;;5030153;28;20546;-86
2021/03/09 01:52:47;;;;;;;19.67;11.07;;;;;;;;;;5008940;28;20599;-87
2021/03/09 01:55:51;;;;;;;17.80;11.07;;;;;;;;;;4999069;28;20590;-87
2021/03/09 01:58:57;;;;;;;18.83;12.00;;;;;;;;;;4999036;28;20966;-88
2021/03/09 02:02:02;;;;;;;19.63;12.03;;;;;;;;;;4998898;28;20555;-87
2021/03/09 02:05:09;;;;;;;20.40;12.00;;;;;;;;;;5010341;28;20547;-87
2021/03/09 02:08:14;;;;;;;20.20;12.33;;;;;;;;;;5009729;28;20650;-87
2021/03/09 02:11:47;;;;;;;18.67;11.60;;;;;;;;;;5027762;28;20597;-87
2021/03/09 02:15:16;;;;;;;18.00;11.70;;;;;;;;;;5022198;28;20597;-87
2021/03/09 02:18:23;;;;;;;20.20;12.00;;;;;;;;;;5044492;28;20633;-87
2021/03/09 02:21:50;;;;;;;21.23;12.33;;;;;;;;;;5033642;28;20538;-87
2021/03/09 02:25:20;;;;;;;19.90;11.57;;;;;;;;;;5028216;28;20587;-87
2021/03/09 02:28:55;;;;;;;21.57;11.33;;;;;;;;;;5002026;28;20626;-87
2021/03/09 02:32:00;;;;;;;21.80;12.30;;;;;;;;;;5013543;28;21093;-88
2021/03/09 02:35:08;;;;;;;21.23;11.73;;;;;;;;;;5024466;28;20966;-88
2021/03/09 02:38:16;;;;;;;16.33;11.37;;;;;;;;;;5035693;28;20630;-87
2021/03/09 02:41:22;;;;;;;22.23;11.80;;;;;;;;;;5013188;28;20558;-87
2021/03/09 02:44:29;;;;;;;17.57;11.40;;;;;;;;;;5024475;28;20551;-87
2021/03/09 02:47:33;;;;;;;21.00;11.40;;;;;;;;;;5024303;28;20626;-87
2021/03/09 02:50:47;;;;;;;21.90;11.73;;;;;;;;;;5018982;28;20594;-87
2021/03/09 02:53:54;;;;;;;18.10;11.57;;;;;;;;;;5013112;28;20559;-87
2021/03/09 02:56:59;;;;;;;22.40;12.63;;;;;;;;;;5012877;28;20606;-87
2021/03/09 03:00:06;;;;;;;18.33;10.93;;;;;;;;;;5012996;28;20602;-87
2021/03/09 03:03:13;;;;;;;21.57;11.27;;;;;;;;;;5001531;28;20551;-87
2021/03/09 03:06:17;;;;;;;19.30;11.90;;;;;;;;;;5001450;28;21117;-88
2021/03/09 03:09:22;;;;;;;18.33;11.10;;;;;;;;;;5018323;28;20598;-88
2021/03/09 03:12:30;;;;;;;20.63;10.80;;;;;;;;;;5031991;28;20613;-87
2021/03/09 03:15:36;;;;;;;16.07;9.93;;;;;;;;;;5020734;28;20598;-87
2021/03/09 03:18:42;;;;;;;17.27;10.63;;;;;;;;;;5018119;28;21017;-87
2021/03/09 03:21:48;;;;;;;19.73;12.00;;;;;;;;;;5012348;28;21089;-87
2021/03/09 03:24:53;;;;;;;20.00;11.90;;;;;;;;;;5012674;28;20547;-87
2021/03/09 03:27:58;;;;;;;19.00;11.17;;;;;;;;;;5012066;28;20630;-87
2021/03/09 03:31:03;;;;;;;19.97;10.90;;;;;;;;;;5000741;28;20551;-88
2021/03/09 03:34:07;;;;;;;19.87;11.70;;;;;;;;;;5012149;28;20563;-87
2021/03/09 03:37:13;;;;;;;17.47;10.90;;;;;;;;;;5000845;28;20615;-87
2021/03/09 03:40:19;;;;;;;19.17;11.43;;;;;;;;;;5023243;28;20578;-88
2021/03/09 03:43:24;;;;;;;19.77;11.07;;;;;;;;;;5015393;28;20598;-87
2021/03/09 03:46:28;;;;;;;16.57;10.17;;;;;;;;;;5020717;28;20542;-87
2021/03/09 03:49:32;;;;;;;20.17;11.33;;;;;;;;;;5023590;28;20630;-87
2021/03/09 03:53:06;;;;;;;23.37;12.43;;;;;;;;;;5000749;28;20610;-87
2021/03/09 03:56:41;;;;;;;19.23;11.47;;;;;;;;;;5011352;28;21168;-88
2021/03/09 03:59:51;;;;;;;19.27;10.83;;;;;;;;;;5022862;28;20555;-87
2021/03/09 04:02:56;;;;;;;20.13;11.00;;;;;;;;;;5022769;28;20559;-87
2021/03/09 04:06:03;;;;;;;19.87;11.90;;;;;;;;;;5011667;28;21085;-87
2021/03/09 04:09:08;;;;;;;18.90;11.13;;;;;;;;;;5000267;28;20922;-87
2021/03/09 04:12:12;;;;;;;24.40;12.43;;;;;;;;;;5011483;28;20559;-87
2021/03/09 04:15:17;;;;;;;21.63;11.83;;;;;;;;;;5000088;28;20706;-87
2021/03/09 04:18:23;;;;;;;17.50;10.93;;;;;;;;;;5010997;28;21216;-87
2021/03/09 04:21:29;;;;;;;18.80;11.20;;;;;;;;;;5030733;28;20554;-88
2021/03/09 04:24:33;;;;;;;23.43;12.67;;;;;;;;;;5011180;28;20539;-88
2021/03/09 04:27:38;;;;;;;19.47;11.47;;;;;;;;;;5011120;28;20619;-87
2021/03/09 04:30:43;;;;;;;20.50;11.33;;;;;;;;;;5022074;28;20559;-88
2021/03/09 04:33:48;;;;;;;18.30;10.90;;;;;;;;;;5022370;28;20555;-88
2021/03/09 04:36:53;;;;;;;18.80;10.73;;;;;;;;;;5022292;28;20654;-88
2021/03/09 04:39:58;;;;;;;18.17;10.70;;;;;;;;;;5012097;28;20594;-88
2021/03/09 04:43:03;;;;;;;20.43;12.40;;;;;;;;;;5011244;28;21085;-87
2021/03/09 04:46:08;;;;;;;19.63;11.70;;;;;;;;;;5000940;28;20536;-87
2021/03/09 04:49:15;;;;;;;19.80;11.40;;;;;;;;;;5019413;28;20566;-88
2021/03/09 04:52:19;;;;;;;23.73;11.93;;;;;;;;;;5019367;28;20542;-88
2021/03/09 04:55:25;;;;;;;18.77;10.63;;;;;;;;;;5019361;28;20597;-87
2021/03/09 04:58:29;;;;;;;23.20;10.87;;;;;;;;;;5018893;28;21230;-87
2021/03/09 05:01:33;;;;;;;22.13;11.77;;;;;;;;;;4999555;28;20555;-87
2021/03/09 05:04:37;;;;;;;17.93;10.90;;;;;;;;;;4999464;28;20539;-88
2021/03/09 05:07:42;;;;;;;21.33;11.40;;;;;;;;;;5021763;28;21021;-87
2021/03/09 05:10:47;;;;;;;21.53;11.37;;;;;;;;;;5041432;28;20637;-87
2021/03/09 05:13:51;;;;;;;19.07;11.80;;;;;;;;;;5037438;22;21267;-89
2021/03/09 05:16:55;;;;;;;16.63;10.50;;;;;;;;;;5002109;28;21271;-88
2021/03/09 05:20:00;;;;;;;21.33;11.70;;;;;;;;;;5032881;28;20586;-89
2021/03/09 05:23:05;;;;;;;20.30;11.30;;;;;;;;;;5010460;28;20622;-88
2021/03/09 05:26:10;;;;;;;21.27;11.30;;;;;;;;;;5010219;28;20606;-89
2021/03/09 05:29:14;;;;;;;22.77;11.03;;;;;;;;;;5010023;28;21112;-88
2021/03/09 05:32:18;;;;;;;23.97;12.30;;;;;;;;;;5010197;28;20634;-89
2021/03/09 05:35:23;;;;;;;20.13;12.27;;;;;;;;;;5009190;28;20646;-88
2021/03/09 05:38:27;;;;;;;21.07;12.50;;;;;;;;;;5021057;28;20594;-88
2021/03/09 05:41:35;;;;;;;21.10;12.37;;;;;;;;;;5021034;28;20598;-84
2021/03/09 05:44:39;;;;;;;23.47;13.60;;;;;;;;;;5013849;28;20614;-84
2021/03/09 05:47:44;;;;;;;21.13;12.03;;;;;;;;;;5006665;28;20607;-84
2021/03/09 05:50:48;;;;;;;19.90;11.87;;;;;;;;;;5016993;28;21110;-83
2021/03/09 05:53:52;;;;;;;19.50;11.40;;;;;;;;;;5005185;28;20626;-83
2021/03/09 05:56:56;;;;;;;18.57;11.37;;;;;;;;;;5016571;28;20600;-87
2021/03/09 06:00:02;;;;;;;20.57;11.77;;;;;;;;;;5004835;28;20948;-87
2021/03/09 06:03:16;;;;;;;19.77;11.93;;;;;;;;;;4986763;28;20999;-88
2021/03/09 06:06:20;;;;;;;21.80;12.13;;;;;;;;;;4996820;28;20549;-88
2021/03/09 06:09:34;;;;;;;20.60;11.63;;;;;;;;;;5019594;28;20630;-88
2021/03/09 06:12:38;;;;;;;23.87;14.53;;;;;;;;;;5013544;28;20662;-88
2021/03/09 06:15:52;;;;;;;23.80;13.77;;;;;;;;;;4996891;28;20643;-88
2021/03/09 06:18:57;;;;;;;23.53;13.70;;;;;;;;;;5010989;28;20618;-88
2021/03/09 06:22:02;;;;;;;21.73;13.27;;;;;;;;;;5018516;28;20623;-88
2021/03/09 06:25:09;;;;;;;21.97;13.87;;;;;;;;;;4996866;28;21179;-88
2021/03/09 06:28:13;;;;;;;24.23;13.23;;;;;;;;;;5035716;28;20554;-88
2021/03/09 06:31:18;;;;;;;23.47;14.27;;;;;;;;;;5013369;28;20615;-89
2021/03/09 06:34:27;;;;;;;27.90;14.20;;;;;;;;;;4975530;28;20592;-88
2021/03/09 06:37:31;;;;;;;20.47;12.73;;;;;;;;;;4974704;28;20609;-88
2021/03/09 06:40:35;;;;;;;24.13;13.40;;;;;;;;;;4993507;28;20556;-89
2021/03/09 06:43:45;;;;;;;23.57;13.00;;;;;;;;;;4998503;28;20649;-88
2021/03/09 06:46:49;;;;;;;21.87;13.63;;;;;;;;;;5012396;28;20618;-89
2021/03/09 06:49:54;;;;;;;22.13;13.53;;;;;;;;;;5013338;28;20906;-89
2021/03/09 06:53:05;;;;;;;23.93;12.97;;;;;;;;;;5023647;28;20630;-87
2021/03/09 06:56:23;;;;;;;26.60;13.70;;;;;;;;;;4976106;28;20644;-89
2021/03/09 06:59:31;;;;;;;40.07;15.13;;;;;;;;;;4984844;28;20543;-89
2021/03/09 07:02:36;;;;;;;97.20;18.97;;;;;;;;;;4984822;28;20630;-89
2021/03/09 07:05:56;;;;;;;74.23;19.43;;;;;;;;;;4973606;28;20612;-89
2021/03/09 07:09:08;;;;;;;57.37;16.73;;;;;;;;;;5021236;28;20603;-89
2021/03/09 07:12:14;;;;;;;64.27;19.63;;;;;;;;;;5003695;28;20677;-87
2021/03/09 07:15:20;;;;;;;60.17;21.77;;;;;;;;;;4984617;28;20618;-87
2021/03/09 07:18:26;;;;;;;35.30;18.33;;;;;;;;;;4973166;28;20960;-87
2021/03/09 07:21:32;;;;;;;31.13;15.67;;;;;;;;;;4984367;28;20608;-87
2021/03/09 07:24:42;;;;;;;28.40;14.97;;;;;;;;;;4984404;28;20557;-87
2021/03/09 07:28:09;;;;;;;32.03;15.83;;;;;;;;;;4996368;28;20557;-87
2021/03/09 07:31:13;;;;;;;27.30;15.00;;;;;;;;;;4973622;28;20549;-87
2021/03/09 07:34:19;;;;;;;25.63;14.43;;;;;;;;;;4984094;28;20920;-87
2021/03/09 07:37:23;;;;;;;29.83;15.53;;;;;;;;;;4995715;28;20610;-87
2021/03/09 07:40:29;;;;;;;30.77;15.07;;;;;;;;;;4972885;28;20561;-87
2021/03/09 07:43:33;;;;;;;30.83;15.10;;;;;;;;;;4972949;28;20644;-88
2021/03/09 07:46:38;;;;;;;23.33;13.67;;;;;;;;;;4995204;28;20621;-87
2021/03/09 07:49:43;;;;;;;25.90;14.30;;;;;;;;;;4981941;28;21146;-87
2021/03/09 07:53:03;;;;;;;23.90;14.83;;;;;;;;;;4984434;28;20639;-87
2021/03/09 07:56:07;;;;;;;27.30;13.03;;;;;;;;;;4972618;28;21024;-87
2021/03/09 07:59:12;;;;;;;20.67;12.77;;;;;;;;;;4983579;28;20605;-87
2021/03/09 08:02:36;;;;;;;22.13;13.47;;;;;;;;;;5011694;28;20660;-86
2021/03/09 08:05:49;;;;;;;22.43;13.97;;;;;;;;;;4991904;28;20553;-87
2021/03/09 08:08:54;;;;;;;20.87;12.93;;;;;;;;;;5002808;28;20553;-86
2021/03/09 08:11:58;;;;;;;23.07;13.63;;;;;;;;;;5013771;28;20616;-86
2021/03/09 08:15:19;;;;;;;28.60;13.53;;;;;;;;;;4991483;28;20607;-86
2021/03/09 08:18:24;;;;;;;19.93;12.67;;;;;;;;;;5014021;28;20544;-86
2021/03/09 08:21:56;;;;;;;21.97;13.97;;;;;;;;;;4991588;28;20548;-87
2021/03/09 08:25:00;;;;;;;21.47;12.87;;;;;;;;;;4991282;28;20900;-88
2021/03/09 08:28:33;;;;;;;21.73;13.50;;;;;;;;;;4991595;28;20540;-88
2021/03/09 08:31:37;;;;;;;38.37;13.27;;;;;;;;;;4991478;28;21098;-88
2021/03/09 08:34:42;;;;;;;21.50;12.83;;;;;;;;;;5002198;28;20611;-87
2021/03/09 08:37:48;;;;;;;18.73;12.73;;;;;;;;;;5002368;28;20656;-87
2021/03/09 08:41:05;;;;;;;109.17;18.23;;;;;;;;;;5002255;28;20562;-87
2021/03/09 08:44:23;;;;;;;20.03;13.07;;;;;;;;;;5002028;28;20631;-87
2021/03/09 08:47:53;;;;;;;26.77;12.43;;;;;;;;;;5002104;28;20596;-87
2021/03/09 08:50:57;;;;;;;25.77;12.70;;;;;;;;;;5013435;28;20552;-87
2021/03/09 08:54:15;;;;;;;21.23;13.30;;;;;;;;;;5002006;28;20236;-87
2021/03/09 08:57:19;;;;;;;20.73;12.70;;;;;;;;;;4991315;28;20222;-87
2021/03/09 09:00:24;;;;;;;20.93;12.80;;;;;;;;;;5002182;28;20186;-87
2021/03/09 09:03:33;;;;;;;25.13;13.23;;;;;;;;;;5001767;28;20225;-87
2021/03/09 09:06:37;;;;;;;19.43;12.77;;;;;;;;;;5013260;28;20193;-87
2021/03/09 09:09:41;;;;;;;19.60;12.87;;;;;;;;;;4990942;28;20182;-88
2021/03/09 09:12:47;;;;;;;18.77;12.60;;;;;;;;;;5001712;28;20232;-87
2021/03/09 09:15:52;;;;;;;22.43;12.97;;;;;;;;;;5013292;28;20189;-87
2021/03/09 09:18:57;;;;;;;18.37;12.30;;;;;;;;;;4990164;28;20201;-88
2021/03/09 09:22:01;;;;;;;18.67;12.30;;;;;;;;;;4990408;28;20205;-88
2021/03/09 09:25:11;;;;;;;18.77;12.83;;;;;;;;;;5012941;28;20185;-87
2021/03/09 09:28:24;;;;;;;18.07;12.93;;;;;;;;;;5013193;28;20189;-87
2021/03/09 09:31:28;;;;;;;18.40;12.97;;;;;;;;;;5003708;28;20193;-87
2021/03/09 09:34:37;;;;;;;20.17;13.57;;;;;;;;;;4992240;28;20568;-87
2021/03/09 09:37:49;;;;;;;20.10;13.57;;;;;;;;;;5001617;28;20213;-88
2021/03/09 09:40:58;;;;;;;18.27;13.20;;;;;;;;;;5007039;28;20560;-88
2021/03/09 09:44:02;;;;;;;18.27;12.33;;;;;;;;;;4990599;28;20227;-88
2021/03/09 09:47:08;;;;;;;17.03;11.70;;;;;;;;;;4990934;28;20189;-88
2021/03/09 09:50:13;;;;;;;18.27;12.13;;;;;;;;;;4970892;28;20193;-88
2021/03/09 09:53:32;;;;;;;15.53;11.43;;;;;;;;;;5008835;28;20228;-88
2021/03/09 09:56:38;;;;;;;15.63;11.73;;;;;;;;;;5009348;28;20220;-87
2021/03/09 09:59:42;;;;;;;16.43;12.07;;;;;;;;;;5010102;28;20191;-88
2021/03/09 10:03:08;;;;;;;15.43;10.57;;;;;;;;;;4995726;28;20788;-89
2021/03/09 10:06:16;;;;;;;14.60;10.40;;;;;;;;;;5008565;28;20193;-89
2021/03/09 10:09:23;;;;;;;14.80;11.17;;;;;;;;;;5001468;28;20180;-88
2021/03/09 10:12:39;;;;;;;15.10;10.97;;;;;;;;;;5007663;28;20595;-87
2021/03/09 10:15:45;;;;;;;13.60;10.13;;;;;;;;;;5009262;28;20200;-88
2021/03/09 10:18:50;;;;;;;15.60;10.53;;;;;;;;;;4993491;28;20205;-88
2021/03/09 10:21:55;;;;;;;14.00;10.83;;;;;;;;;;5000277;28;20686;-87
2021/03/09 10:25:10;;;;;;;13.77;10.30;;;;;;;;;;5000682;28;20201;-88
2021/03/09 10:28:24;;;;;;;12.93;10.03;;;;;;;;;;4998018;28;20212;-88
2021/03/09 10:31:59;;;;;;;12.97;10.47;;;;;;;;;;5013841;28;20754;-88
2021/03/09 10:35:07;;;;;;;14.73;10.47;;;;;;;;;;5018916;28;20188;-88
2021/03/09 10:38:22;;;;;;;15.00;10.77;;;;;;;;;;5008404;28;20578;-87
2021/03/09 10:41:26;;;;;;;11.10;8.47;;;;;;;;;;5011557;28;20199;-87
2021/03/09 10:44:34;;;;;;;10.67;7.83;;;;;;;;;;5006552;28;20556;-88
2021/03/09 10:47:38;;;;;;;14.20;7.87;;;;;;;;;;5021008;28;20181;-87
2021/03/09 10:50:43;;;;;;;9.93;7.13;;;;;;;;;;5016109;28;20533;-88
2021/03/09 10:53:47;;;;;;;9.63;7.13;;;;;;;;;;4977827;28;20225;-87
2021/03/09 10:56:51;;;;;;;7.43;5.87;;;;;;;;;;5018938;28;20189;-88
2021/03/09 10:59:55;;;;;;;6.37;5.17;;;;;;;;;;4992319;28;20194;-90
2021/03/09 11:03:00;;;;;;;7.83;5.37;;;;;;;;;;5016353;28;20220;-90
2021/03/09 11:06:04;;;;;;;12.53;6.70;;;;;;;;;;5012890;28;20628;-90
2021/03/09 11:09:09;;;;;;;11.20;6.33;;;;;;;;;;5005891;28;20184;-90
2021/03/09 11:12:13;;;;;;;10.97;6.97;;;;;;;;;;5022934;28;20248;-90
2021/03/09 11:15:18;;;;;;;10.23;6.43;;;;;;;;;;5042444;22;20228;-89
2021/03/09 11:18:22;;;;;;;10.03;7.70;;;;;;;;;;5039445;28;20207;-88
2021/03/09 11:21:27;;;;;;;11.87;6.90;;;;;;;;;;5039524;28;20231;-89
2021/03/09 11:24:31;;;;;;;8.30;6.10;;;;;;;;;;5033381;28;20647;-89
2021/03/09 11:27:35;;;;;;;6.17;4.17;;;;;;;;;;5022879;28;20176;-88
2021/03/09 11:30:40;;;;;;;5.47;3.87;;;;;;;;;;5043066;28;20184;-89
2021/03/09 11:33:44;;;;;;;4.57;3.27;;;;;;;;;;5026946;28;20530;-89
2021/03/09 11:36:48;;;;;;;4.90;3.40;;;;;;;;;;5031914;28;20516;-88
2021/03/09 11:39:52;;;;;;;4.13;3.70;;;;;;;;;;5047446;28;20187;-88
2021/03/09 11:42:56;;;;;;;7.97;5.83;;;;;;;;;;5039953;28;20187;-89
2021/03/09 11:46:00;;;;;;;7.97;5.53;;;;;;;;;;5026954;28;20240;-89
2021/03/09 11:49:04;;;;;;;5.67;4.80;;;;;;;;;;5039343;28;20191;-88
2021/03/09 11:52:09;;;;;;;5.57;4.47;;;;;;;;;;5040412;28;20626;-88
2021/03/09 11:55:13;;;;;;;5.10;4.43;;;;;;;;;;5022248;28;20223;-89
2021/03/09 11:58:17;;;;;;;9.27;5.50;;;;;;;;;;5020171;28;20219;-89
2021/03/09 12:01:21;;;;;;;7.23;5.77;;;;;;;;;;5043075;28;20196;-89
2021/03/09 12:04:25;;;;;;;12.03;6.10;;;;;;;;;;5031484;28;20181;-89
2021/03/09 12:07:30;;;;;;;7.43;6.17;;;;;;;;;;5031384;28;20184;-89
2021/03/09 12:10:34;;;;;;;8.60;6.20;;;;;;;;;;5031067;28;20200;-89
2021/03/09 12:13:38;;;;;;;8.10;6.33;;;;;;;;;;5022012;28;20552;-89
2021/03/09 12:16:42;;;;;;;9.07;6.60;;;;;;;;;;5037903;28;20195;-89
2021/03/09 12:19:47;;;;;;;8.43;6.00;;;;;;;;;;5051071;28;20550;-88
2021/03/09 12:22:51;;;;;;;8.73;6.07;;;;;;;;;;5039763;28;20179;-88
2021/03/09 12:25:55;;;;;;;11.00;6.47;;;;;;;;;;5039383;28;20215;-88
2021/03/09 12:29:00;;;;;;;8.30;6.03;;;;;;;;;;5050868;28;20180;-88
2021/03/09 12:32:05;;;;;;;11.40;6.30;;;;;;;;;;5043530;28;20203;-89
2021/03/09 12:35:10;;;;;;;10.07;6.23;;;;;;;;;;5050561;28;20700;-88
2021/03/09 12:38:15;;;;;;;7.80;6.50;;;;;;;;;;5051034;28;20211;-88
2021/03/09 12:41:20;;;;;;;9.60;6.20;;;;;;;;;;5051109;28;20175;-88
2021/03/09 12:44:24;;;;;;;25.77;7.70;;;;;;;;;;5038977;28;20191;-88
2021/03/09 12:47:28;;;;;;;8.03;6.43;;;;;;;;;;5039024;28;20195;-88
2021/03/09 12:50:32;;;;;;;8.60;6.60;;;;;;;;;;5050486;28;20183;-88
2021/03/09 12:53:36;;;;;;;147.37;13.03;;;;;;;;;;5061253;28;20183;-88
2021/03/09 12:56:41;;;;;;;8.17;6.60;;;;;;;;;;5050375;28;20553;-88
2021/03/09 12:59:45;;;;;;;10.43;6.83;;;;;;;;;;5050593;28;20172;-88
2021/03/09 13:02:49;;;;;;;8.17;6.33;;;;;;;;;;5062080;28;20179;-88
2021/03/09 13:05:53;;;;;;;9.13;6.60;;;;;;;;;;5049677;28;20219;-88
2021/03/09 13:08:57;;;;;;;9.27;6.70;;;;;;;;;;5049908;28;20195;-88
2021/03/09 13:12:02;;;;;;;17.47;8.60;;;;;;;;;;5050211;28;20176;-88
2021/03/09 13:15:10;;;;;;;9.37;7.20;;;;;;;;;;5060957;28;20219;-89
2021/03/09 13:18:14;;;;;;;9.93;7.67;;;;;;;;;;5038261;28;20223;-89
2021/03/09 13:21:22;;;;;;;11.43;7.43;;;;;;;;;;5050531;28;20488;-89
2021/03/09 13:24:26;;;;;;;36.33;10.20;;;;;;;;;;5061468;28;20175;-88
2021/03/09 13:27:30;;;;;;;13.03;7.23;;;;;;;;;;5050114;28;20661;-88
2021/03/09 13:30:34;;;;;;;10.43;6.80;;;;;;;;;;5039004;28;20495;-88
2021/03/09 13:33:40;;;;;;;125.50;12.23;;;;;;;;;;5038836;28;20183;-88
2021/03/09 13:36:44;;;;;;;8.47;6.60;;;;;;;;;;5049993;28;20187;-89
2021/03/09 13:39:48;;;;;;;58.00;11.53;;;;;;;;;;5049708;28;20559;-89
2021/03/09 13:42:52;;;;;;;9.10;7.20;;;;;;;;;;5049713;28;20183;-89
2021/03/09 13:45:57;;;;;;;11.40;8.73;;;;;;;;;;5038910;28;20207;-86
2021/03/09 13:49:02;;;;;;;11.07;8.03;;;;;;;;;;5050852;28;20172;-86
2021/03/09 13:52:07;;;;;;;10.63;7.43;;;;;;;;;;5046076;28;20188;-87
2021/03/09 13:55:14;;;;;;;11.93;7.57;;;;;;;;;;5033607;28;20212;-87
2021/03/09 13:58:18;;;;;;;11.47;7.77;;;;;;;;;;5028771;28;20220;-87
2021/03/09 14:01:23;;;;;;;11.67;7.50;;;;;;;;;;5036218;28;20200;-87
2021/03/09 14:04:27;;;;;;;11.90;7.63;;;;;;;;;;5030869;28;20192;-87
2021/03/09 14:07:32;;;;;;;13.40;7.87;;;;;;;;;;5043138;28;20188;-87
2021/03/09 14:10:36;;;;;;;28.87;12.03;;;;;;;;;;5047060;28;20176;-86
2021/03/09 14:13:40;;;;;;;22.00;14.10;;;;;;;;;;5045119;28;20216;-86
2021/03/09 14:16:44;;;;;;;15.47;8.20;;;;;;;;;;5058909;28;20202;-86
2021/03/09 14:19:49;;;;;;;9.37;7.07;;;;;;;;;;5041587;28;20547;-87
2021/03/09 14:22:53;;;;;;;10.60;7.43;;;;;;;;;;5048896;28;20659;-84
2021/03/09 14:25:58;;;;;;;28.30;7.70;;;;;;;;;;5048282;28;20702;-87
2021/03/09 14:29:02;;;;;;;10.90;7.40;;;;;;;;;;5046284;28;20192;-89
2021/03/09 14:32:06;;;;;;;9.80;7.07;;;;;;;;;;5034945;28;20196;-87
2021/03/09 14:35:13;;;;;;;10.43;6.83;;;;;;;;;;5033956;28;20698;-87
2021/03/09 14:38:17;;;;;;;10.00;6.87;;;;;;;;;;5022164;28;20203;-87
2021/03/09 14:41:22;;;;;;;10.73;6.80;;;;;;;;;;5022589;28;20184;-87
2021/03/09 14:44:27;;;;;;;108.03;13.07;;;;;;;;;;5022503;28;20176;-88
2021/03/09 14:47:31;;;;;;;9.00;6.97;;;;;;;;;;5033997;28;20192;-88
2021/03/09 14:50:35;;;;;;;10.93;7.43;;;;;;;;;;5022964;28;20176;-87
2021/03/09 14:53:40;;;;;;;9.87;6.63;;;;;;;;;;5034818;28;20188;-87
2021/03/09 14:56:44;;;;;;;11.43;6.57;;;;;;;;;;5034205;28;20180;-88
2021/03/09 14:59:48;;;;;;;8.63;6.50;;;;;;;;;;5035116;28;20204;-87
2021/03/09 15:02:53;;;;;;;9.70;6.43;;;;;;;;;;5037478;28;20516;-88
2021/03/09 15:05:58;;;;;;;12.63;8.93;;;;;;;;;;5033708;28;20220;-88
2021/03/09 15:09:04;;;;;;;14.17;8.17;;;;;;;;;;5044922;28;20172;-87
2021/03/09 15:12:09;;;;;;;13.87;6.70;;;;;;;;;;5033020;28;20176;-87
2021/03/09 15:15:14;;;;;;;8.63;6.63;;;;;;;;;;5032761;28;20701;-88
2021/03/09 15:18:19;;;;;;;9.77;6.83;;;;;;;;;;5034404;28;20176;-86
2021/03/09 15:21:23;;;;;;;10.10;6.23;;;;;;;;;;5043891;28;20176;-85
2021/03/09 15:24:27;;;;;;;129.63;13.33;;;;;;;;;;5032076;28;20176;-84
2021/03/09 15:27:31;;;;;;;10.73;7.70;;;;;;;;;;5021020;28;20195;-84
2021/03/09 15:30:36;;;;;;;8.93;6.43;;;;;;;;;;5022286;28;20176;-85
2021/03/09 15:33:40;;;;;;;10.73;6.67;;;;;;;;;;5048014;28;20187;-85
2021/03/09 15:36:44;;;;;;;59.03;11.20;;;;;;;;;;5036722;28;20184;-86
2021/03/09 15:39:48;;;;;;;12.93;7.47;;;;;;;;;;5046691;28;20212;-85
2021/03/09 15:42:53;;;;;;;16.03;11.07;;;;;;;;;;5036738;28;20176;-85
2021/03/09 15:45:57;;;;;;;20.03;10.47;;;;;;;;;;5063973;28;20222;-85
2021/03/09 15:49:02;;;;;;;24.47;11.67;;;;;;;;;;5044873;28;20191;-86
2021/03/09 15:52:10;;;;;;;10.17;6.83;;;;;;;;;;5067305;28;20200;-85
2021/03/09 15:55:15;;;;;;;14.73;9.33;;;;;;;;;;5042541;28;20219;-85
2021/03/09 15:58:19;;;;;;;16.33;8.87;;;;;;;;;;5024562;28;20196;-86
2021/03/09 16:01:24;;;;;;;10.67;6.90;;;;;;;;;;5047651;28;20521;-86
2021/03/09 16:04:31;;;;;;;9.43;7.40;;;;;;;;;;5030565;28;20540;-83
2021/03/09 16:07:36;;;;;;;18.53;7.27;;;;;;;;;;5036548;28;20180;-84
2021/03/09 16:10:40;;;;;;;13.67;6.80;;;;;;;;;;5037239;28;20200;-85
2021/03/09 16:13:44;;;;;;;9.33;6.77;;;;;;;;;;5035044;28;20199;-84
2021/03/09 16:16:48;;;;;;;33.57;8.97;;;;;;;;;;5043223;28;20205;-88
2021/03/09 16:19:52;;;;;;;10.57;7.13;;;;;;;;;;5032572;28;20204;-88
2021/03/09 16:22:56;;;;;;;11.33;7.53;;;;;;;;;;5034209;28;20188;-88
2021/03/09 16:26:01;;;;;;;52.10;10.47;;;;;;;;;;5036467;28;20215;-90
2021/03/09 16:29:09;;;;;;;12.23;8.40;;;;;;;;;;5033178;28;20685;-90
2021/03/09 16:32:13;;;;;;;12.67;8.60;;;;;;;;;;5039247;28;20538;-90
2021/03/09 16:35:17;;;;;;;18.33;7.80;;;;;;;;;;5035072;28;20223;-88
2021/03/09 16:38:21;;;;;;;11.83;8.23;;;;;;;;;;5045493;28;20182;-89
2021/03/09 16:41:26;;;;;;;10.13;7.27;;;;;;;;;;5040053;28;20171;-88
2021/03/09 16:44:30;;;;;;;9.97;6.80;;;;;;;;;;5064787;28;20562;-88
2021/03/09 16:47:34;;;;;;;9.47;7.47;;;;;;;;;;5043115;28;20188;-88
2021/03/09 16:50:38;;;;;;;13.97;8.87;;;;;;;;;;5050450;28;20187;-88
2021/03/09 16:53:43;;;;;;;12.97;8.53;;;;;;;;;;5034087;28;20192;-88
2021/03/09 16:56:47;;;;;;;26.90;8.10;;;;;;;;;;5039321;28;20191;-88
2021/03/09 16:59:52;;;;;;;17.10;7.80;;;;;;;;;;5053456;28;20685;-88
2021/03/09 17:02:56;;;;;;;20.97;8.37;;;;;;;;;;5044542;28;20203;-88
2021/03/09 17:06:00;;;;;;;19.10;7.90;;;;;;;;;;5033047;28;20223;-87
2021/03/09 17:09:07;;;;;;;11.23;7.17;;;;;;;;;;5033666;28;20519;-88
2021/03/09 17:12:12;;;;;;;27.70;8.47;;;;;;;;;;5038878;28;20183;-89
2021/03/09 17:15:16;;;;;;;22.03;7.90;;;;;;;;;;5019205;28;20232;-88
2021/03/09 17:18:20;;;;;;;10.50;7.20;;;;;;;;;;5018637;28;20199;-88
2021/03/09 17:21:24;;;;;;;11.33;7.37;;;;;;;;;;5019238;28;20666;-88
2021/03/09 17:24:28;;;;;;;10.90;7.17;;;;;;;;;;5019666;28;20188;-88
2021/03/09 17:27:32;;;;;;;12.37;8.90;;;;;;;;;;5030671;28;20183;-89
2021/03/09 17:30:36;;;;;;;38.00;18.87;;;;;;;;;;5042979;28;20180;-88
2021/03/09 17:33:40;;;;;;;20.40;12.43;;;;;;;;;;5029634;28;20669;-89
2021/03/09 17:36:44;;;;;;;19.83;11.73;;;;;;;;;;5056948;28;20179;-87
2021/03/09 17:39:49;;;;;;;12.03;8.57;;;;;;;;;;5052354;28;20203;-88
2021/03/09 17:42:53;;;;;;;16.03;10.20;;;;;;;;;;5040945;28;20183;-88
2021/03/09 17:45:57;;;;;;;22.07;14.20;;;;;;;;;;5034594;28;20219;-88
2021/03/09 17:49:01;;;;;;;37.33;19.47;;;;;;;;;;5046730;28;20200;-88
2021/03/09 17:52:05;;;;;;;58.57;15.20;;;;;;;;;;5029651;28;20203;-88
2021/03/09 17:55:11;;;;;;;21.63;10.03;;;;;;;;;;5033882;28;20223;-88
2021/03/09 17:58:16;;;;;;;14.10;8.60;;;;;;;;;;5046628;28;20574;-88
2021/03/09 18:01:20;;;;;;;12.10;7.57;;;;;;;;;;5045497;28;20679;-88
2021/03/09 18:04:24;;;;;;;11.03;7.53;;;;;;;;;;5022301;28;20176;-88
2021/03/09 18:07:28;;;;;;;10.80;7.30;;;;;;;;;;5044843;28;21081;-88
2021/03/09 18:10:36;;;;;;;11.90;7.50;;;;;;;;;;5039727;28;20191;-88
2021/03/09 18:13:40;;;;;;;15.27;7.83;;;;;;;;;;5042098;28;20188;-88